createdAt,value
2018-08-25T00:02:00.784Z,2.93
2018-08-25T00:05:04.128Z,2.60
2018-08-25T00:08:07.415Z,2.60
2018-08-25T00:11:11.767Z,2.40
2018-08-25T00:14:15.045Z,2.87
2018-08-25T00:17:18.579Z,2.80
2018-08-25T00:20:21.939Z,3.20
2018-08-25T00:23:26.289Z,2.60
2018-08-25T00:26:29.527Z,2.50
2018-08-25T00:29:32.827Z,2.93
2018-08-25T00:32:36.145Z,2.90
2018-08-25T00:35:39.450Z,2.40
2018-08-25T00:38:42.759Z,2.50
2018-08-25T00:41:46.175Z,2.67
2018-08-25T00:44:49.544Z,2.57
2018-08-25T00:47:52.952Z,2.30
2018-08-25T00:50:56.835Z,2.47
2018-08-25T00:54:00.155Z,2.83
2018-08-25T00:57:03.433Z,2.80
2018-08-25T01:00:06.751Z,2.50
2018-08-25T01:03:10.054Z,2.67
2018-08-25T01:06:13.342Z,2.60
2018-08-25T01:09:16.675Z,2.63
2018-08-25T01:12:19.943Z,2.27
2018-08-25T01:15:23.129Z,2.70
2018-08-25T01:18:27.747Z,2.43
2018-08-25T01:21:31.038Z,2.40
2018-08-25T01:24:34.332Z,2.70
2018-08-25T01:27:37.644Z,2.50
2018-08-25T01:30:40.819Z,2.83
2018-08-25T01:33:45.192Z,2.43
2018-08-25T01:36:48.533Z,2.77
2018-08-25T01:39:52.765Z,2.50
2018-08-25T01:42:56.768Z,2.80
2018-08-25T01:45:59.975Z,2.50
2018-08-25T01:49:03.522Z,2.27
2018-08-25T01:52:07.864Z,2.00
2018-08-25T01:55:11.186Z,1.90
2018-08-25T01:58:14.602Z,1.93
2018-08-25T02:01:18.868Z,2.13
2018-08-25T02:04:22.105Z,2.50
2018-08-25T02:07:25.566Z,2.13
2018-08-25T02:10:28.864Z,2.30
2018-08-25T02:13:33.127Z,1.73
2018-08-25T02:16:36.435Z,1.70
2018-08-25T02:19:39.735Z,1.90
2018-08-25T02:22:42.926Z,1.93
2018-08-25T02:25:46.244Z,2.00
2018-08-25T02:28:49.527Z,1.97
2018-08-25T02:31:52.700Z,1.90
2018-08-25T02:34:56.406Z,2.20
2018-08-25T02:37:59.776Z,2.43
2018-08-25T02:41:03.168Z,2.27
2018-08-25T02:44:06.441Z,2.13
2018-08-25T02:47:10.747Z,1.90
2018-08-25T02:50:14.069Z,1.97
2018-08-25T02:53:17.438Z,1.90
2018-08-25T02:56:20.744Z,1.90
2018-08-25T02:59:24.035Z,2.37
2018-08-25T03:02:28.152Z,2.23
2018-08-25T03:05:31.461Z,1.77
2018-08-25T03:08:34.728Z,2.10
2018-08-25T03:11:37.991Z,1.83
2018-08-25T03:14:42.239Z,2.50
2018-08-25T03:17:45.562Z,2.40
2018-08-25T03:20:48.869Z,2.10
2018-08-25T03:23:52.263Z,1.97
2018-08-25T03:26:56.665Z,2.30
2018-08-25T03:30:01.098Z,2.40
2018-08-25T03:33:04.368Z,2.30
2018-08-25T03:36:08.616Z,2.03
2018-08-25T03:39:12.751Z,2.40
2018-08-25T03:42:16.032Z,2.40
2018-08-25T03:45:19.226Z,2.40
2018-08-25T03:48:22.519Z,2.40
2018-08-25T03:51:25.719Z,2.70
2018-08-25T03:54:29.256Z,2.20
2018-08-25T03:57:32.491Z,2.50
2018-08-25T04:00:35.837Z,2.20
2018-08-25T04:03:39.131Z,2.80
2018-08-25T04:06:42.304Z,2.37
2018-08-25T04:09:45.675Z,2.70
2018-08-25T04:12:49.036Z,3.00
2018-08-25T04:15:52.287Z,2.60
2018-08-25T04:18:55.678Z,2.77
2018-08-25T04:22:00.104Z,2.73
2018-08-25T04:25:03.460Z,2.60
2018-08-25T04:28:06.874Z,3.13
2018-08-25T04:31:10.148Z,2.83
2018-08-25T04:34:13.460Z,2.80
2018-08-25T04:37:16.841Z,2.80
2018-08-25T04:40:20.271Z,2.87
2018-08-25T04:43:23.781Z,2.77
2018-08-25T04:46:27.360Z,2.73
2018-08-25T04:49:30.989Z,3.00
2018-08-25T04:52:34.588Z,2.53
2018-08-25T04:55:38.836Z,3.07
2018-08-25T04:58:42.178Z,2.87
2018-08-25T05:01:45.622Z,2.97
2018-08-25T05:04:48.864Z,2.90
2018-08-25T05:07:52.289Z,3.60
2018-08-25T05:10:55.612Z,3.10
2018-08-25T05:13:59.727Z,3.23
2018-08-25T05:17:03.134Z,2.83
2018-08-25T05:20:06.516Z,3.00
2018-08-25T05:23:09.944Z,3.57
2018-08-25T05:26:13.432Z,3.47
2018-08-25T05:29:16.818Z,3.33
2018-08-25T05:32:20.163Z,2.93
2018-08-25T05:35:23.541Z,3.50
2018-08-25T05:38:27.037Z,3.10
2018-08-25T05:41:30.318Z,3.60
2018-08-25T05:44:34.644Z,3.60
2018-08-25T05:47:37.878Z,3.70
2018-08-25T05:50:41.127Z,3.43
2018-08-25T05:53:44.383Z,3.30
2018-08-25T05:56:47.490Z,3.63
2018-08-25T05:59:50.722Z,4.03
2018-08-25T06:02:54.229Z,3.13
2018-08-25T06:05:57.735Z,3.77
2018-08-25T06:09:01.110Z,3.93
2018-08-25T06:12:04.636Z,3.97
2018-08-25T06:15:08.839Z,4.33
2018-08-25T06:18:14.231Z,3.80
2018-08-25T06:21:17.591Z,4.07
2018-08-25T06:24:20.873Z,4.47
2018-08-25T06:27:24.239Z,4.07
2018-08-25T06:30:27.583Z,4.03
2018-08-25T06:33:31.888Z,4.60
2018-08-25T06:36:35.354Z,4.17
2018-08-25T06:39:38.633Z,4.10
2018-08-25T06:42:42.215Z,4.70
2018-08-25T06:45:46.222Z,3.90
2018-08-25T06:48:49.525Z,4.23
2018-08-25T06:51:53.144Z,4.50
2018-08-25T06:54:56.405Z,3.90
2018-08-25T06:57:59.823Z,4.43
2018-08-25T07:01:03.292Z,3.80
2018-08-25T07:04:06.629Z,3.40
2018-08-25T07:07:09.966Z,3.30
2018-08-25T07:10:13.177Z,3.57
2018-08-25T07:13:16.404Z,3.20
2018-08-25T07:16:19.704Z,2.70
2018-08-25T07:19:23.120Z,2.60
2018-08-25T07:22:26.367Z,2.63
2018-08-25T07:25:31.655Z,3.00
2018-08-25T07:28:34.914Z,2.73
2018-08-25T07:31:38.285Z,2.80
2018-08-25T07:34:41.658Z,2.57
2018-08-25T07:37:44.965Z,2.70
2018-08-25T07:40:48.218Z,2.17
2018-08-25T07:43:51.427Z,2.50
2018-08-25T07:46:54.574Z,2.23
2018-08-25T07:49:57.898Z,2.60
2018-08-25T07:53:03.186Z,2.90
2018-08-25T07:56:07.615Z,2.40
2018-08-25T07:59:11.261Z,2.50
2018-08-25T08:02:14.487Z,2.87
2018-08-25T08:05:17.796Z,2.37
2018-08-25T08:08:21.567Z,2.37
2018-08-25T08:11:25.786Z,2.60
2018-08-25T08:14:29.273Z,2.57
2018-08-25T08:17:33.415Z,2.60
2018-08-25T08:20:36.917Z,2.37
2018-08-25T08:23:40.247Z,1.87
2018-08-25T08:26:43.655Z,2.47
2018-08-25T08:29:47.092Z,2.33
2018-08-25T08:32:54.966Z,2.37
2018-08-25T08:35:58.364Z,2.60
2018-08-25T08:39:02.671Z,2.67
2018-08-25T08:42:06.008Z,2.73
2018-08-25T08:45:09.267Z,2.40
2018-08-25T08:48:12.523Z,2.70
2018-08-25T08:51:16.049Z,2.57
2018-08-25T08:54:19.301Z,2.50
2018-08-25T08:57:22.631Z,2.33
2018-08-25T09:00:25.836Z,2.27
2018-08-25T09:03:29.169Z,2.60
2018-08-25T09:06:32.767Z,2.40
2018-08-25T09:09:36.173Z,2.67
2018-08-25T09:12:39.460Z,2.40
2018-08-25T09:15:42.864Z,2.20
2018-08-25T09:18:46.176Z,2.03
2018-08-25T09:21:49.407Z,2.00
2018-08-25T09:24:52.605Z,2.00
2018-08-25T09:27:55.921Z,1.80
2018-08-25T09:31:00.264Z,1.90
2018-08-25T09:34:03.648Z,1.93
2018-08-25T09:37:06.891Z,1.80
2018-08-25T09:40:10.767Z,2.40
2018-08-25T09:43:14.079Z,2.23
2018-08-25T09:46:17.950Z,2.13
2018-08-25T09:49:21.282Z,2.50
2018-08-25T09:52:24.618Z,2.80
2018-08-25T09:55:27.905Z,2.70
2018-08-25T09:58:31.900Z,1.90
2018-08-25T10:01:41.496Z,2.10
2018-08-25T10:04:44.796Z,2.10
2018-08-25T10:07:48.114Z,2.20
2018-08-25T10:10:51.784Z,2.00
2018-08-25T10:13:55.208Z,2.00
2018-08-25T10:16:59.547Z,2.20
2018-08-25T10:20:03.011Z,1.83
2018-08-25T10:23:06.414Z,1.97
2018-08-25T10:26:09.699Z,2.27
2018-08-25T10:29:13.247Z,2.20
2018-08-25T10:32:17.555Z,1.97
2018-08-25T10:35:21.612Z,1.60
2018-08-25T10:38:24.892Z,2.30
2018-08-25T10:41:28.284Z,2.27
2018-08-25T10:44:32.684Z,2.40
2018-08-25T10:47:36.076Z,2.10
2018-08-25T10:50:39.409Z,1.90
2018-08-25T10:53:42.746Z,1.80
2018-08-25T10:56:46.516Z,1.57
2018-08-25T10:59:50.226Z,1.77
2018-08-25T11:02:53.624Z,1.90
2018-08-25T11:05:57.653Z,2.43
2018-08-25T11:09:01.005Z,1.63
2018-08-25T11:12:05.337Z,1.33
2018-08-25T11:15:08.812Z,1.70
2018-08-25T11:18:12.365Z,1.40
2018-08-25T11:21:15.759Z,1.50
2018-08-25T11:24:19.050Z,1.00
2018-08-25T11:27:22.219Z,1.10
2018-08-25T11:30:26.555Z,1.27
2018-08-25T11:33:29.786Z,1.30
2018-08-25T11:36:33.085Z,1.20
2018-08-25T11:39:36.862Z,0.90
2018-08-25T11:42:41.114Z,1.03
2018-08-25T11:45:45.348Z,1.40
2018-08-25T11:48:48.657Z,1.10
2018-08-25T11:51:51.970Z,1.30
2018-08-25T11:54:55.526Z,1.40
2018-08-25T11:57:58.733Z,1.40
2018-08-25T12:01:02.130Z,1.20
2018-08-25T12:04:05.782Z,1.07
2018-08-25T12:07:09.355Z,1.23
2018-08-25T12:10:12.638Z,1.30
2018-08-25T12:13:15.965Z,1.60
2018-08-25T12:16:20.535Z,1.30
2018-08-25T12:19:23.881Z,1.20
2018-08-25T12:22:27.149Z,1.37
2018-08-25T12:25:30.424Z,1.10
2018-08-25T12:28:34.747Z,1.17
2018-08-25T12:31:38.095Z,1.40
2018-08-25T12:34:41.387Z,1.20
2018-08-25T12:37:44.691Z,1.57
2018-08-25T12:40:47.970Z,1.73
2018-08-25T12:43:51.247Z,1.57
2018-08-25T12:46:54.548Z,1.47
2018-08-25T12:49:58.291Z,1.13
2018-08-25T12:53:01.599Z,1.20
2018-08-25T12:56:05.854Z,1.40
2018-08-25T12:59:09.093Z,1.27
2018-08-25T13:02:12.381Z,1.00
2018-08-25T13:05:15.665Z,1.30
2018-08-25T13:08:18.887Z,1.30
2018-08-25T13:11:22.190Z,1.17
2018-08-25T13:14:25.488Z,1.07
2018-08-25T13:17:28.852Z,1.13
2018-08-25T13:20:32.189Z,1.37
2018-08-25T13:23:35.629Z,1.27
2018-08-25T13:26:41.247Z,1.20
2018-08-25T13:29:44.666Z,1.00
2018-08-25T13:32:48.061Z,1.23
2018-08-25T13:35:51.493Z,1.50
2018-08-25T13:38:54.811Z,1.10
2018-08-25T13:41:58.144Z,1.30
2018-08-25T13:45:01.436Z,1.07
2018-08-25T13:48:04.775Z,1.20
2018-08-25T13:51:09.344Z,1.20
2018-08-25T13:54:12.566Z,0.93
2018-08-25T13:57:15.936Z,1.10
2018-08-25T14:00:19.311Z,1.10
2018-08-25T14:03:22.464Z,1.00
2018-08-25T14:06:25.851Z,1.00
2018-08-25T14:09:29.153Z,1.07
2018-08-25T14:12:32.486Z,0.70
2018-08-25T14:15:36.038Z,1.10
2018-08-25T14:18:40.431Z,0.90
2018-08-25T14:21:43.727Z,0.80
2018-08-25T14:24:47.014Z,0.87
2018-08-25T14:27:50.390Z,0.90
2018-08-25T14:30:53.635Z,1.07
2018-08-25T14:33:57.255Z,1.00
2018-08-25T14:37:00.563Z,1.10
2018-08-25T14:40:04.854Z,1.00
2018-08-25T14:43:09.181Z,0.93
2018-08-25T14:46:12.628Z,0.93
2018-08-25T14:49:16.015Z,0.70
2018-08-25T14:52:19.249Z,0.80
2018-08-25T14:55:22.473Z,0.80
2018-08-25T14:58:25.774Z,0.90
2018-08-25T15:01:29.071Z,0.83
2018-08-25T15:04:33.383Z,0.90
2018-08-25T15:07:37.427Z,0.80
2018-08-25T15:10:40.704Z,1.00
2018-08-25T15:13:43.955Z,0.90
2018-08-25T15:16:47.376Z,0.90
2018-08-25T15:19:52.059Z,0.70
2018-08-25T15:22:55.944Z,0.90
2018-08-25T15:25:59.258Z,0.90
2018-08-25T15:29:04.099Z,1.07
2018-08-25T15:32:09.432Z,0.80
2018-08-25T15:35:12.584Z,0.80
2018-08-25T15:38:15.912Z,0.70
2018-08-25T15:41:20.088Z,0.70
2018-08-25T15:44:23.445Z,0.90
2018-08-25T15:47:27.775Z,0.87
2018-08-25T15:50:31.035Z,0.70
2018-08-25T15:53:35.708Z,0.70
2018-08-25T15:56:39.566Z,0.80
2018-08-25T15:59:42.902Z,0.80
2018-08-25T16:02:46.521Z,0.90
2018-08-25T16:05:49.781Z,0.87
2018-08-25T16:08:53.083Z,0.73
2018-08-25T16:11:56.544Z,0.90
2018-08-25T16:14:59.667Z,0.70
2018-08-25T16:18:02.971Z,0.63
2018-08-25T16:21:06.052Z,0.70
2018-08-25T16:24:09.412Z,1.00
2018-08-25T16:27:13.168Z,0.60
2018-08-25T16:30:16.523Z,0.60
2018-08-25T16:33:19.865Z,0.90
2018-08-25T16:36:23.709Z,0.97
2018-08-25T16:39:27.041Z,0.60
2018-08-25T16:42:30.275Z,0.80
2018-08-25T16:45:33.749Z,0.80
2018-08-25T16:48:37.388Z,0.80
2018-08-25T16:51:41.410Z,0.70
2018-08-25T16:54:45.634Z,0.90
2018-08-25T16:57:50.068Z,0.90
2018-08-25T17:00:54.317Z,0.80
2018-08-25T17:03:58.625Z,0.63
2018-08-25T17:07:01.812Z,0.80
2018-08-25T17:10:05.171Z,0.70
2018-08-25T17:13:08.406Z,0.90
2018-08-25T17:16:11.692Z,0.77
2018-08-25T17:19:15.086Z,0.90
2018-08-25T17:22:18.394Z,1.00
2018-08-25T17:25:21.680Z,0.70
2018-08-25T17:28:25.089Z,0.73
2018-08-25T17:31:29.060Z,1.17
2018-08-25T17:34:32.389Z,0.93
2018-08-25T17:37:36.619Z,0.90
2018-08-25T17:40:39.922Z,0.60
2018-08-25T17:43:43.321Z,0.70
2018-08-25T17:46:46.619Z,0.80
2018-08-25T17:49:49.972Z,0.93
2018-08-25T17:52:53.329Z,0.90
2018-08-25T17:55:56.729Z,0.70
2018-08-25T17:59:00.258Z,0.80
2018-08-25T18:02:03.620Z,0.90
2018-08-25T18:05:08.116Z,1.07
2018-08-25T18:08:11.788Z,0.90
2018-08-25T18:11:15.330Z,1.00
2018-08-25T18:14:18.617Z,0.90
2018-08-25T18:17:21.920Z,1.03
2018-08-25T18:20:26.593Z,1.07
2018-08-25T18:23:31.236Z,1.00
2018-08-25T18:26:34.845Z,1.00
2018-08-25T18:29:38.310Z,1.10
2018-08-25T18:32:41.684Z,0.90
2018-08-25T18:35:45.109Z,1.40
2018-08-25T18:38:48.514Z,1.23
2018-08-25T18:41:51.797Z,1.03
2018-08-25T18:44:55.125Z,0.90
2018-08-25T18:47:58.389Z,1.00
2018-08-25T18:51:01.802Z,1.10
2018-08-25T18:54:06.015Z,1.00
2018-08-25T18:57:09.648Z,1.13
2018-08-25T19:00:12.908Z,1.10
2018-08-25T19:03:16.207Z,1.10
2018-08-25T19:06:19.613Z,1.10
2018-08-25T19:09:22.887Z,1.30
2018-08-25T19:12:26.273Z,1.10
2018-08-25T19:15:29.660Z,1.10
2018-08-25T19:18:33.018Z,1.30
2018-08-25T19:21:36.984Z,1.40
2018-08-25T19:24:40.624Z,1.33
2018-08-25T19:27:43.823Z,1.30
2018-08-25T19:30:47.199Z,1.70
2018-08-25T19:33:51.770Z,1.60
2018-08-25T19:36:55.030Z,1.80
2018-08-25T19:39:59.340Z,1.80
2018-08-25T19:43:02.510Z,1.37
2018-08-25T19:46:05.862Z,1.20
2018-08-25T19:49:08.998Z,1.20
2018-08-25T19:52:16.357Z,1.60
2018-08-25T19:55:20.791Z,1.40
2018-08-25T19:58:27.144Z,1.73
2018-08-25T20:01:30.418Z,1.30
2018-08-25T20:04:33.757Z,1.43
2018-08-25T20:07:37.241Z,1.50
2018-08-25T20:10:40.542Z,1.60
2018-08-25T20:13:43.935Z,1.70
2018-08-25T20:16:47.249Z,1.57
2018-08-25T20:19:51.941Z,1.33
2018-08-25T20:22:55.103Z,1.70
2018-08-25T20:25:58.418Z,1.83
2018-08-25T20:29:01.786Z,1.77
2018-08-25T20:32:05.171Z,1.57
2018-08-25T20:35:08.767Z,1.40
2018-08-25T20:38:12.032Z,1.27
2018-08-25T20:41:15.356Z,1.33
2018-08-25T20:44:18.723Z,1.90
2018-08-25T20:47:21.921Z,1.43
2018-08-25T20:50:25.213Z,1.50
2018-08-25T20:53:28.591Z,1.70
2018-08-25T20:56:32.560Z,1.43
2018-08-25T20:59:35.808Z,1.40
2018-08-25T21:02:39.001Z,1.30
2018-08-25T21:05:42.288Z,1.07
2018-08-25T21:08:45.591Z,1.47
2018-08-25T21:11:49.403Z,1.27
2018-08-25T21:14:52.727Z,1.37
2018-08-25T21:17:56.434Z,1.30
2018-08-25T21:20:59.708Z,1.33
2018-08-25T21:24:03.012Z,1.37
2018-08-25T21:27:06.371Z,1.30
2018-08-25T21:30:10.431Z,1.33
2018-08-25T21:33:13.782Z,1.43
2018-08-25T21:36:18.490Z,1.37
2018-08-25T21:39:21.747Z,1.20
2018-08-25T21:42:25.018Z,1.17
2018-08-25T21:45:29.420Z,1.17
2018-08-25T21:48:32.968Z,1.20
2018-08-25T21:51:36.424Z,1.30
2018-08-25T21:54:39.762Z,1.20
2018-08-25T21:57:42.922Z,1.10
2018-08-25T22:00:51.588Z,1.30
2018-08-25T22:03:54.825Z,1.20
2018-08-25T22:06:58.615Z,1.20
2018-08-25T22:10:01.870Z,1.40
2018-08-25T22:13:05.106Z,1.30
2018-08-25T22:16:08.898Z,1.60
2018-08-25T22:19:12.288Z,1.50
2018-08-25T22:22:15.563Z,1.63
2018-08-25T22:25:19.267Z,1.60
2018-08-25T22:28:22.481Z,1.43
2018-08-25T22:31:25.732Z,1.60
2018-08-25T22:34:28.959Z,1.43
2018-08-25T22:37:32.298Z,1.33
2018-08-25T22:40:35.481Z,1.57
2018-08-25T22:43:38.819Z,1.37
2018-08-25T22:46:42.067Z,1.43
2018-08-25T22:49:45.284Z,1.40
2018-08-25T22:52:52.079Z,1.50
2018-08-25T22:55:55.321Z,1.50
2018-08-25T22:58:58.601Z,1.70
2018-08-25T23:02:01.935Z,1.30
2018-08-25T23:05:05.884Z,1.50
2018-08-25T23:08:09.222Z,1.73
2018-08-25T23:11:14.230Z,1.40
2018-08-25T23:14:17.459Z,1.50
2018-08-25T23:17:22.182Z,1.70
2018-08-25T23:20:26.141Z,1.10
2018-08-25T23:23:29.439Z,1.30
2018-08-25T23:26:32.829Z,1.60
2018-08-25T23:29:37.299Z,1.90
2018-08-25T23:32:40.633Z,1.80
2018-08-25T23:35:43.930Z,2.03
2018-08-25T23:38:49.338Z,2.10
2018-08-25T23:41:52.996Z,2.33
2018-08-25T23:44:56.435Z,2.43
2018-08-25T23:47:59.820Z,2.80
2018-08-25T23:51:02.983Z,2.90
2018-08-25T23:54:06.326Z,2.30
2018-08-25T23:57:09.591Z,2.20
